Flugplatz Gera-Leumnitz

Für EDAJ sind keine METAR/TAF Berichte vorhanden.
Es werden die Flugwettermeldungen vom Flugplatz Altenburg-Nobitz in 28 km Entfernung angezeigt.

Bericht für EDAC

vom 07.03. um 02:20 UTC

Wind 4 kt aus 180°

Sichtweite 10 km oder mehr

aufgelockert bewölkt in 3700 ft

Temperatur -2.0°C

Taupunkt -5.0°C

Luftfeuchtigkeit 80%

Luftdruck 1026 hPa

EDAC 070220Z AUTO 18004KT 140V210 9999 // SCT037/// M02/M05 Q1026
Keine Prognose (TAF) verfügbar.
Impressum